Nisshoumaru — JD3093 — position and weather

sailwx.info

Track history (hours):
 
Tides and Currents Weather Stations Pressure Air Temp Water Temp Dewpoint Dewpoint Depression Visibility Wind Speed Wind Dir Waves Ship Positions

Nisshoumaru

Last reported at 2014-Sep-19 04:30 UTC. Time now 2014-Sep-22 12:16 UTC.
Position N 35°56' E 140°40'.

Length 76 m; draft 4 m.

Type: Cargo ship. MMSI: 431001549.

Date/timePositionNaut miles runAvg speedWind from/ knotsBaromVisibWave heightAir tempDewpointWater temp
2014-Sep-19 04:30N 35°56' E 140°40'0 0.0
2014-Sep-19 03:34N 35°56' E 140°40'0 0.0
2014-Sep-19 02:33N 35°56' E 140°40'0 0.0
2014-Sep-19 01:34N 35°56' E 140°40'0 0.0
2014-Sep-19 00:33N 35°56' E 140°40'0 0.0
2014-Sep-18 23:18N 35°56' E 140°40'0 0.0
2014-Sep-18 22:34N 35°56' E 140°40'0 0.0
2014-Sep-18 21:33N 35°56' E 140°40'0 0.0
2014-Sep-18 20:34N 35°56' E 140°40'0 0.0
2014-Sep-18 19:33N 35°56' E 140°40'0 0.0
2014-Sep-18 18:33N 35°56' E 140°40'0 0.0
2014-Sep-18 17:34N 35°56' E 140°40'0 0.0
2014-Sep-18 16:33N 35°56' E 140°40'0 0.0
2014-Sep-18 15:33N 35°56' E 140°40'0 0.0
2014-Sep-18 14:33N 35°56' E 140°40'0 0.0
2014-Sep-18 13:34N 35°56' E 140°40'0 0.0
2014-Sep-18 12:34N 35°56' E 140°40'0 0.0
2014-Sep-18 11:33N 35°56' E 140°40'0 0.0
2014-Sep-18 10:31N 35°56' E 140°40'0 0.1
2014-Sep-18 09:33N 35°56' E 140°40'0 0.0
2014-Sep-18 07:31N 35°56' E 140°40'0 0.0
2014-Sep-17 22:09N 35°56' E 140°40'0 0.0
2014-Sep-17 21:33N 35°56' E 140°40'0 0.1
2014-Sep-17 20:23N 35°56' E 140°40'0 0.1
2014-Sep-17 19:30N 35°56' E 140°40'0 0.0
2014-Sep-17 18:30N 35°56' E 140°40'0 0.1
2014-Sep-17 17:33N 35°56' E 140°40'3 2.8
2014-Sep-17 16:33N 35°57' E 140°43'60 9.8
2014-Sep-17 10:26N 35°02' E 140°14'1614.0
2014-Sep-17 09:19N 34°54' E 139°58'16 9.3
2014-Sep-17 07:33N 35°06' E 139°44'1312.6
2014-Sep-17 06:33N 35°18' E 139°44'1111.2
2014-Sep-17 05:33N 35°28' E 139°50'1312.5
2014-Sep-17 04:33N 35°35' E 140°03'0 0.1
2014-Sep-17 03:33N 35°35' E 140°03'2 2.4
2014-Sep-17 02:33N 35°36' E 140°05'1 0.7
2014-Sep-17 01:33N 35°37' E 140°05'0 0.0
2014-Sep-17 00:33N 35°37' E 140°05'0 0.0
2014-Sep-16 23:33N 35°37' E 140°05'2 1.6
2014-Sep-16 22:33N 35°35' E 140°04'1 0.9
2014-Sep-16 21:33N 35°35' E 140°03'0 0.0
2014-Sep-16 20:33N 35°35' E 140°03'0 0.0
2014-Sep-16 19:33N 35°34' E 140°03'0 0.0
2014-Sep-16 18:33N 35°34' E 140°03'0 0.0
2014-Sep-16 17:33N 35°34' E 140°03'0 0.0
2014-Sep-16 16:33N 35°34' E 140°03'0 0.0
2014-Sep-16 15:33N 35°34' E 140°03'0 0.0
2014-Sep-16 14:33N 35°34' E 140°03'0 0.0
2014-Sep-16 13:33N 35°34' E 140°03'0 0.0
2014-Sep-16 12:33N 35°35' E 140°03'0 0.0
2014-Sep-16 11:33N 35°35' E 140°03'0 0.1
2014-Sep-16 10:33N 35°35' E 140°03'0 0.0
2014-Sep-16 09:33N 35°35' E 140°03'0 0.0
2014-Sep-16 08:33N 35°35' E 140°03'0 0.0
2014-Sep-16 07:33N 35°35' E 140°03'1111.4
2014-Sep-16 06:33N 35°28' E 139°52'1211.9
2014-Sep-16 05:33N 35°18' E 139°45'1311.9
2014-Sep-16 04:30N 35°05' E 139°43'24010.4
2014-Sep-15 05:22N 34°10' E 134°59'1011.7
2014-Sep-15 04:32N 34°20' E 134°59'1212.2
2014-Sep-15 03:31N 34°32' E 135°03'8 0.2
2014-Sep-13 10:14N 34°36' E 134°54'711.0
2014-Sep-13 09:33N 34°36' E 135°03'1111.1
2014-Sep-13 08:33N 34°34' E 135°16'8 7.7
2014-Sep-13 07:33N 34°31' E 135°24'0 0.0
2014-Sep-13 06:33N 34°31' E 135°24'0 0.0
2014-Sep-13 05:33N 34°31' E 135°24'0 0.0
2014-Sep-13 04:33N 34°31' E 135°24'0 0.0
2014-Sep-13 03:33N 34°31' E 135°24'0 0.0
2014-Sep-13 02:33N 34°31' E 135°24'0 0.0
2014-Sep-13 01:33N 34°31' E 135°24'0 0.0
2014-Sep-13 00:33N 34°31' E 135°24'0 0.2
2014-Sep-12 23:32N 34°31' E 135°24'0 0.0
2014-Sep-12 22:33N 34°31' E 135°24'0 0.0
2014-Sep-12 21:33N 34°31' E 135°24'0 0.0
2014-Sep-12 20:33N 34°31' E 135°24'0 0.0
2014-Sep-12 19:32N 34°31' E 135°24'0 0.0
2014-Sep-12 18:33N 34°31' E 135°24'0 0.0
2014-Sep-12 17:33N 34°31' E 135°24'0 0.0
2014-Sep-12 16:33N 34°31' E 135°24'0 0.0
2014-Sep-12 15:33N 34°31' E 135°24'0 0.0
2014-Sep-12 14:29N 34°31' E 135°24'0 0.0
2014-Sep-12 13:32N 34°31' E 135°24'0 0.0
2014-Sep-12 12:33N 34°31' E 135°24'0 0.0
2014-Sep-12 11:32N 34°31' E 135°24'0 0.0
2014-Sep-12 10:32N 34°31' E 135°24'0 0.0
2014-Sep-12 09:33N 34°31' E 135°24'0 0.0
2014-Sep-12 08:33N 34°31' E 135°24'0 0.0
2014-Sep-12 07:33N 34°31' E 135°24'0 0.0
2014-Sep-12 06:33N 34°31' E 135°24'0 0.0
2014-Sep-12 05:30N 34°31' E 135°24'0 0.0
2014-Sep-12 04:31N 34°31' E 135°24'0 0.0
2014-Sep-12 03:33N 34°31' E 135°24'1 0.4
2014-Sep-12 00:33N 34°32' E 135°24'1212.2
2014-Sep-11 23:32N 34°26' E 135°11'1312.6
2014-Sep-11 22:29N 34°16' E 134°59'24110.5
2014-Sep-10 23:33N 35°11' E 139°45'1311.7
2014-Sep-10 22:28N 35°23' E 139°42'9 9.5
2014-Sep-10 21:33N 35°22' E 139°53'1 0.5
2014-Sep-10 20:33N 35°22' E 139°54'0 0.0
2014-Sep-10 19:33N 35°22' E 139°54'0 0.0
2014-Sep-10 18:34N 35°22' E 139°54'0 0.0
2014-Sep-10 17:33N 35°22' E 139°54'0 0.0
2014-Sep-10 16:33N 35°22' E 139°54'0 0.0
2014-Sep-10 15:33N 35°22' E 139°54'0 0.0
2014-Sep-10 14:32N 35°22' E 139°54'0 0.0
2014-Sep-10 13:33N 35°22' E 139°54'0 0.0
2014-Sep-10 12:33N 35°22' E 139°54'0 0.0
2014-Sep-10 11:33N 35°22' E 139°54'0 0.0
2014-Sep-10 10:33N 35°22' E 139°54'0 0.0
2014-Sep-10 09:33N 35°22' E 139°54'0 0.0
2014-Sep-10 08:33N 35°22' E 139°54'0 0.0
2014-Sep-10 07:33N 35°22' E 139°54'0 0.0
2014-Sep-10 06:33N 35°22' E 139°54'0 0.1
2014-Sep-10 05:33N 35°22' E 139°54'3 3.1
2014-Sep-10 04:33N 35°24' E 139°51'0 0.1
2014-Sep-10 03:33N 35°24' E 139°51'0 0.0
2014-Sep-10 02:33N 35°24' E 139°51'0 0.0
2014-Sep-10 01:33N 35°24' E 139°51'0 0.0
2014-Sep-10 00:33N 35°24' E 139°51'0 0.0
2014-Sep-09 23:33N 35°24' E 139°51'0 0.0
2014-Sep-09 22:33N 35°24' E 139°51'0 0.0
2014-Sep-09 21:33N 35°24' E 139°51'0 0.0
2014-Sep-09 20:33N 35°24' E 139°51'0 0.1
2014-Sep-09 19:33N 35°24' E 139°51'0 0.0
2014-Sep-09 18:33N 35°24' E 139°51'0 0.0
2014-Sep-09 17:33N 35°24' E 139°51'0 0.1
2014-Sep-09 16:33N 35°24' E 139°51'0 0.0
2014-Sep-09 15:33N 35°24' E 139°51'0 0.0
2014-Sep-09 14:33N 35°24' E 139°51'0 0.0
2014-Sep-09 13:33N 35°24' E 139°51'0 0.0
2014-Sep-09 12:33N 35°24' E 139°51'0 0.0
2014-Sep-09 11:33N 35°24' E 139°51'0 0.1
2014-Sep-09 10:34N 35°24' E 139°51'0 0.0
2014-Sep-09 09:33N 35°24' E 139°51'0 0.3
2014-Sep-09 08:33N 35°24' E 139°50'1211.8
2014-Sep-09 07:33N 35°36' E 139°50'3 2.6
2014-Sep-09 06:33N 35°38' E 139°48'0 0.0
2014-Sep-09 05:33N 35°38' E 139°48'0 0.0
2014-Sep-09 04:33N 35°38' E 139°48'  
Track history (hours):
 
Tides and Currents Weather Stations Pressure Air Temp Water Temp Dewpoint Dewpoint Depression Visibility Wind Speed Wind Dir Waves Ship Positions

Nisshoumaru

Last reported at 2014-Sep-19 04:30 UTC. Time now 2014-Sep-22 12:16 UTC.
Position N 35°56' E 140°40'.

Length 76 m; draft 4 m.

Type: Cargo ship. MMSI: 431001549.

Date/timePositionNaut miles runAvg speedWind from/ knotsBaromVisibWave heightAir tempDewpointWater temp
2014-Sep-19 04:30N 35°56' E 140°40'0 0.0
2014-Sep-19 03:34N 35°56' E 140°40'0 0.0
2014-Sep-19 02:33N 35°56' E 140°40'0 0.0
2014-Sep-19 01:34N 35°56' E 140°40'0 0.0
2014-Sep-19 00:33N 35°56' E 140°40'0 0.0
2014-Sep-18 23:18N 35°56' E 140°40'0 0.0
2014-Sep-18 22:34N 35°56' E 140°40'0 0.0
2014-Sep-18 21:33N 35°56' E 140°40'0 0.0
2014-Sep-18 20:34N 35°56' E 140°40'0 0.0
2014-Sep-18 19:33N 35°56' E 140°40'0 0.0
2014-Sep-18 18:33N 35°56' E 140°40'0 0.0
2014-Sep-18 17:34N 35°56' E 140°40'0 0.0
2014-Sep-18 16:33N 35°56' E 140°40'0 0.0
2014-Sep-18 15:33N 35°56' E 140°40'0 0.0
2014-Sep-18 14:33N 35°56' E 140°40'0 0.0
2014-Sep-18 13:34N 35°56' E 140°40'0 0.0
2014-Sep-18 12:34N 35°56' E 140°40'0 0.0
2014-Sep-18 11:33N 35°56' E 140°40'0 0.0
2014-Sep-18 10:31N 35°56' E 140°40'0 0.1
2014-Sep-18 09:33N 35°56' E 140°40'0 0.0
2014-Sep-18 07:31N 35°56' E 140°40'0 0.0
2014-Sep-17 22:09N 35°56' E 140°40'0 0.0
2014-Sep-17 21:33N 35°56' E 140°40'0 0.1
2014-Sep-17 20:23N 35°56' E 140°40'0 0.1
2014-Sep-17 19:30N 35°56' E 140°40'0 0.0
2014-Sep-17 18:30N 35°56' E 140°40'0 0.1
2014-Sep-17 17:33N 35°56' E 140°40'3 2.8
2014-Sep-17 16:33N 35°57' E 140°43'60 9.8
2014-Sep-17 10:26N 35°02' E 140°14'1614.0
2014-Sep-17 09:19N 34°54' E 139°58'16 9.3
2014-Sep-17 07:33N 35°06' E 139°44'1312.6
2014-Sep-17 06:33N 35°18' E 139°44'1111.2
2014-Sep-17 05:33N 35°28' E 139°50'1312.5
2014-Sep-17 04:33N 35°35' E 140°03'0 0.1
2014-Sep-17 03:33N 35°35' E 140°03'2 2.4
2014-Sep-17 02:33N 35°36' E 140°05'1 0.7
2014-Sep-17 01:33N 35°37' E 140°05'0 0.0
2014-Sep-17 00:33N 35°37' E 140°05'0 0.0
2014-Sep-16 23:33N 35°37' E 140°05'2 1.6
2014-Sep-16 22:33N 35°35' E 140°04'1 0.9
2014-Sep-16 21:33N 35°35' E 140°03'0 0.0
2014-Sep-16 20:33N 35°35' E 140°03'0 0.0
2014-Sep-16 19:33N 35°34' E 140°03'0 0.0
2014-Sep-16 18:33N 35°34' E 140°03'0 0.0
2014-Sep-16 17:33N 35°34' E 140°03'0 0.0
2014-Sep-16 16:33N 35°34' E 140°03'0 0.0
2014-Sep-16 15:33N 35°34' E 140°03'0 0.0
2014-Sep-16 14:33N 35°34' E 140°03'0 0.0
2014-Sep-16 13:33N 35°34' E 140°03'0 0.0
2014-Sep-16 12:33N 35°35' E 140°03'0 0.0
2014-Sep-16 11:33N 35°35' E 140°03'0 0.1
2014-Sep-16 10:33N 35°35' E 140°03'0 0.0
2014-Sep-16 09:33N 35°35' E 140°03'0 0.0
2014-Sep-16 08:33N 35°35' E 140°03'0 0.0
2014-Sep-16 07:33N 35°35' E 140°03'1111.4
2014-Sep-16 06:33N 35°28' E 139°52'1211.9
2014-Sep-16 05:33N 35°18' E 139°45'1311.9
2014-Sep-16 04:30N 35°05' E 139°43'24010.4
2014-Sep-15 05:22N 34°10' E 134°59'1011.7
2014-Sep-15 04:32N 34°20' E 134°59'1212.2
2014-Sep-15 03:31N 34°32' E 135°03'8 0.2
2014-Sep-13 10:14N 34°36' E 134°54'711.0
2014-Sep-13 09:33N 34°36' E 135°03'1111.1
2014-Sep-13 08:33N 34°34' E 135°16'8 7.7
2014-Sep-13 07:33N 34°31' E 135°24'0 0.0
2014-Sep-13 06:33N 34°31' E 135°24'0 0.0
2014-Sep-13 05:33N 34°31' E 135°24'0 0.0
2014-Sep-13 04:33N 34°31' E 135°24'0 0.0
2014-Sep-13 03:33N 34°31' E 135°24'0 0.0
2014-Sep-13 02:33N 34°31' E 135°24'0 0.0
2014-Sep-13 01:33N 34°31' E 135°24'0 0.0
2014-Sep-13 00:33N 34°31' E 135°24'0 0.2
2014-Sep-12 23:32N 34°31' E 135°24'0 0.0
2014-Sep-12 22:33N 34°31' E 135°24'0 0.0
2014-Sep-12 21:33N 34°31' E 135°24'0 0.0
2014-Sep-12 20:33N 34°31' E 135°24'0 0.0
2014-Sep-12 19:32N 34°31' E 135°24'0 0.0
2014-Sep-12 18:33N 34°31' E 135°24'0 0.0
2014-Sep-12 17:33N 34°31' E 135°24'0 0.0
2014-Sep-12 16:33N 34°31' E 135°24'0 0.0
2014-Sep-12 15:33N 34°31' E 135°24'0 0.0
2014-Sep-12 14:29N 34°31' E 135°24'0 0.0
2014-Sep-12 13:32N 34°31' E 135°24'0 0.0
2014-Sep-12 12:33N 34°31' E 135°24'0 0.0
2014-Sep-12 11:32N 34°31' E 135°24'0 0.0
2014-Sep-12 10:32N 34°31' E 135°24'0 0.0
2014-Sep-12 09:33N 34°31' E 135°24'0 0.0
2014-Sep-12 08:33N 34°31' E 135°24'0 0.0
2014-Sep-12 07:33N 34°31' E 135°24'0 0.0
2014-Sep-12 06:33N 34°31' E 135°24'0 0.0
2014-Sep-12 05:30N 34°31' E 135°24'0 0.0
2014-Sep-12 04:31N 34°31' E 135°24'0 0.0
2014-Sep-12 03:33N 34°31' E 135°24'1 0.4
2014-Sep-12 00:33N 34°32' E 135°24'1212.2
2014-Sep-11 23:32N 34°26' E 135°11'1312.6
2014-Sep-11 22:29N 34°16' E 134°59'24110.5
2014-Sep-10 23:33N 35°11' E 139°45'1311.7
2014-Sep-10 22:28N 35°23' E 139°42'9 9.5
2014-Sep-10 21:33N 35°22' E 139°53'1 0.5
2014-Sep-10 20:33N 35°22' E 139°54'0 0.0
2014-Sep-10 19:33N 35°22' E 139°54'0 0.0
2014-Sep-10 18:34N 35°22' E 139°54'0 0.0
2014-Sep-10 17:33N 35°22' E 139°54'0 0.0
2014-Sep-10 16:33N 35°22' E 139°54'0 0.0
2014-Sep-10 15:33N 35°22' E 139°54'0 0.0
2014-Sep-10 14:32N 35°22' E 139°54'0 0.0
2014-Sep-10 13:33N 35°22' E 139°54'0 0.0
2014-Sep-10 12:33N 35°22' E 139°54'0 0.0
2014-Sep-10 11:33N 35°22' E 139°54'0 0.0
2014-Sep-10 10:33N 35°22' E 139°54'0 0.0
2014-Sep-10 09:33N 35°22' E 139°54'0 0.0
2014-Sep-10 08:33N 35°22' E 139°54'0 0.0
2014-Sep-10 07:33N 35°22' E 139°54'0 0.0
2014-Sep-10 06:33N 35°22' E 139°54'0 0.1
2014-Sep-10 05:33N 35°22' E 139°54'3 3.1
2014-Sep-10 04:33N 35°24' E 139°51'0 0.1
2014-Sep-10 03:33N 35°24' E 139°51'0 0.0
2014-Sep-10 02:33N 35°24' E 139°51'0 0.0
2014-Sep-10 01:33N 35°24' E 139°51'0 0.0
2014-Sep-10 00:33N 35°24' E 139°51'0 0.0
2014-Sep-09 23:33N 35°24' E 139°51'0 0.0
2014-Sep-09 22:33N 35°24' E 139°51'0 0.0
2014-Sep-09 21:33N 35°24' E 139°51'0 0.0
2014-Sep-09 20:33N 35°24' E 139°51'0 0.1
2014-Sep-09 19:33N 35°24' E 139°51'0 0.0
2014-Sep-09 18:33N 35°24' E 139°51'0 0.0
2014-Sep-09 17:33N 35°24' E 139°51'0 0.1
2014-Sep-09 16:33N 35°24' E 139°51'0 0.0
2014-Sep-09 15:33N 35°24' E 139°51'0 0.0
2014-Sep-09 14:33N 35°24' E 139°51'0 0.0
2014-Sep-09 13:33N 35°24' E 139°51'0 0.0
2014-Sep-09 12:33N 35°24' E 139°51'0 0.0
2014-Sep-09 11:33N 35°24' E 139°51'0 0.1
2014-Sep-09 10:34N 35°24' E 139°51'0 0.0
2014-Sep-09 09:33N 35°24' E 139°51'0 0.3
2014-Sep-09 08:33N 35°24' E 139°50'1211.8
2014-Sep-09 07:33N 35°36' E 139°50'3 2.6
2014-Sep-09 06:33N 35°38' E 139°48'0 0.0
2014-Sep-09 05:33N 35°38' E 139°48'0 0.0
2014-Sep-09 04:33N 35°38' E 139°48'  

Dump ship's entire track history